sensor_id;sensor_type;location;lat;lon;timestamp;P1;durP1;ratioP1;P2;durP2;ratioP2
46318;SDS011;32042;50.916;2.926;2022-12-07T00:01:44;7.80;;;5.30;;
46318;SDS011;32042;50.916;2.926;2022-12-07T00:04:12;7.83;;;5.27;;
46318;SDS011;32042;50.916;2.926;2022-12-07T00:06:43;11.97;;;5.10;;
46318;SDS011;32042;50.916;2.926;2022-12-07T00:11:50;11.13;;;5.00;;
46318;SDS011;32042;50.916;2.926;2022-12-07T00:14:16;6.23;;;4.83;;
46318;SDS011;32042;50.916;2.926;2022-12-07T00:16:43;11.77;;;4.63;;
46318;SDS011;32042;50.916;2.926;2022-12-07T00:19:10;5.03;;;4.07;;
46318;SDS011;32042;50.916;2.926;2022-12-07T00:21:36;6.17;;;3.83;;
46318;SDS011;32042;50.916;2.926;2022-12-07T00:24:03;6.07;;;4.43;;
46318;SDS011;32042;50.916;2.926;2022-12-07T00:26:33;10.30;;;4.80;;
46318;SDS011;32042;50.916;2.926;2022-12-07T00:29:00;5.70;;;3.57;;
46318;SDS011;32042;50.916;2.926;2022-12-07T00:31:27;11.53;;;4.30;;
46318;SDS011;32042;50.916;2.926;2022-12-07T00:33:53;8.93;;;4.00;;
46318;SDS011;32042;50.916;2.926;2022-12-07T00:36:20;7.50;;;3.50;;
46318;SDS011;32042;50.916;2.926;2022-12-07T00:38:47;6.93;;;3.70;;
46318;SDS011;32042;50.916;2.926;2022-12-07T00:41:14;6.30;;;3.60;;
46318;SDS011;32042;50.916;2.926;2022-12-07T00:43:40;6.73;;;3.63;;
46318;SDS011;32042;50.916;2.926;2022-12-07T00:46:06;3.93;;;3.40;;
46318;SDS011;32042;50.916;2.926;2022-12-07T00:48:33;6.93;;;3.57;;
46318;SDS011;32042;50.916;2.926;2022-12-07T00:50:59;6.07;;;3.50;;
46318;SDS011;32042;50.916;2.926;2022-12-07T00:53:26;11.77;;;3.97;;
46318;SDS011;32042;50.916;2.926;2022-12-07T00:55:52;5.87;;;3.37;;
46318;SDS011;32042;50.916;2.926;2022-12-07T00:58:19;9.17;;;4.40;;
46318;SDS011;32042;50.916;2.926;2022-12-07T01:00:45;5.33;;;3.57;;
46318;SDS011;32042;50.916;2.926;2022-12-07T01:03:12;4.40;;;3.30;;
46318;SDS011;32042;50.916;2.926;2022-12-07T01:05:38;6.90;;;3.60;;
46318;SDS011;32042;50.916;2.926;2022-12-07T01:08:05;4.73;;;3.30;;
46318;SDS011;32042;50.916;2.926;2022-12-07T01:10:32;6.63;;;3.40;;
46318;SDS011;32042;50.916;2.926;2022-12-07T01:12:58;5.20;;;3.00;;
46318;SDS011;32042;50.916;2.926;2022-12-07T01:15:25;6.53;;;3.37;;
46318;SDS011;32042;50.916;2.926;2022-12-07T01:17:51;4.93;;;3.60;;
46318;SDS011;32042;50.916;2.926;2022-12-07T01:20:17;4.63;;;3.37;;
46318;SDS011;32042;50.916;2.926;2022-12-07T01:22:43;6.57;;;3.90;;
46318;SDS011;32042;50.916;2.926;2022-12-07T01:25:10;7.43;;;3.57;;
46318;SDS011;32042;50.916;2.926;2022-12-07T01:27:36;8.20;;;3.70;;
46318;SDS011;32042;50.916;2.926;2022-12-07T01:30:03;5.07;;;3.43;;
46318;SDS011;32042;50.916;2.926;2022-12-07T01:32:30;8.60;;;3.97;;
46318;SDS011;32042;50.916;2.926;2022-12-07T01:34:56;6.23;;;3.63;;
46318;SDS011;32042;50.916;2.926;2022-12-07T01:37:22;5.90;;;4.00;;
46318;SDS011;32042;50.916;2.926;2022-12-07T01:39:49;8.30;;;4.50;;
46318;SDS011;32042;50.916;2.926;2022-12-07T01:42:15;6.90;;;3.70;;
46318;SDS011;32042;50.916;2.926;2022-12-07T01:47:26;6.53;;;3.90;;
46318;SDS011;32042;50.916;2.926;2022-12-07T01:49:52;5.40;;;4.00;;
46318;SDS011;32042;50.916;2.926;2022-12-07T01:52:51;8.60;;;4.00;;
46318;SDS011;32042;50.916;2.926;2022-12-07T01:55:12;5.47;;;3.53;;
46318;SDS011;32042;50.916;2.926;2022-12-07T01:57:40;8.43;;;3.70;;
46318;SDS011;32042;50.916;2.926;2022-12-07T02:00:07;6.97;;;2.93;;
46318;SDS011;32042;50.916;2.926;2022-12-07T02:02:34;3.67;;;2.37;;
46318;SDS011;32042;50.916;2.926;2022-12-07T02:05:03;5.67;;;2.57;;
46318;SDS011;32042;50.916;2.926;2022-12-07T02:07:30;7.77;;;2.57;;
46318;SDS011;32042;50.916;2.926;2022-12-07T02:09:57;7.17;;;2.40;;
46318;SDS011;32042;50.916;2.926;2022-12-07T02:12:23;4.30;;;2.70;;
46318;SDS011;32042;50.916;2.926;2022-12-07T02:14:49;8.23;;;2.77;;
46318;SDS011;32042;50.916;2.926;2022-12-07T02:17:19;5.27;;;2.53;;
46318;SDS011;32042;50.916;2.926;2022-12-07T02:30:08;5.00;;;2.33;;
46318;SDS011;32042;50.916;2.926;2022-12-07T02:32:40;4.03;;;2.30;;
46318;SDS011;32042;50.916;2.926;2022-12-07T02:42:55;6.57;;;2.03;;
46318;SDS011;32042;50.916;2.926;2022-12-07T02:45:23;6.40;;;1.97;;
46318;SDS011;32042;50.916;2.926;2022-12-07T02:47:51;4.03;;;1.97;;
46318;SDS011;32042;50.916;2.926;2022-12-07T02:50:21;5.27;;;2.70;;
46318;SDS011;32042;50.916;2.926;2022-12-07T02:52:48;6.20;;;2.20;;
46318;SDS011;32042;50.916;2.926;2022-12-07T02:55:15;6.37;;;2.10;;
46318;SDS011;32042;50.916;2.926;2022-12-07T02:57:46;3.83;;;2.10;;
46318;SDS011;32042;50.916;2.926;2022-12-07T03:00:15;9.47;;;2.23;;
46318;SDS011;32042;50.916;2.926;2022-12-07T03:02:48;8.60;;;2.00;;
46318;SDS011;32042;50.916;2.926;2022-12-07T03:05:22;5.30;;;2.50;;
46318;SDS011;32042;50.916;2.926;2022-12-07T03:10:19;7.47;;;1.97;;
46318;SDS011;32042;50.916;2.926;2022-12-07T03:15:35;5.17;;;2.27;;
46318;SDS011;32042;50.916;2.926;2022-12-07T03:18:01;10.03;;;2.10;;
46318;SDS011;32042;50.916;2.926;2022-12-07T03:20:28;6.83;;;2.30;;
46318;SDS011;32042;50.916;2.926;2022-12-07T03:22:55;4.13;;;2.10;;
46318;SDS011;32042;50.916;2.926;2022-12-07T03:25:22;6.30;;;2.60;;
46318;SDS011;32042;50.916;2.926;2022-12-07T03:27:53;7.97;;;2.23;;
46318;SDS011;32042;50.916;2.926;2022-12-07T03:30:43;7.53;;;3.23;;
46318;SDS011;32042;50.916;2.926;2022-12-07T03:33:11;7.93;;;2.60;;
46318;SDS011;32042;50.916;2.926;2022-12-07T03:35:43;5.07;;;2.63;;
46318;SDS011;32042;50.916;2.926;2022-12-07T03:38:13;5.37;;;2.40;;
46318;SDS011;32042;50.916;2.926;2022-12-07T03:43:07;7.87;;;2.30;;
46318;SDS011;32042;50.916;2.926;2022-12-07T03:45:40;4.93;;;2.33;;
46318;SDS011;32042;50.916;2.926;2022-12-07T03:48:24;5.40;;;2.27;;
46318;SDS011;32042;50.916;2.926;2022-12-07T03:53:44;10.07;;;2.77;;
46318;SDS011;32042;50.916;2.926;2022-12-07T03:56:12;6.23;;;2.43;;
46318;SDS011;32042;50.916;2.926;2022-12-07T03:58:38;5.63;;;2.30;;
46318;SDS011;32042;50.916;2.926;2022-12-07T04:01:05;11.27;;;2.40;;
46318;SDS011;32042;50.916;2.926;2022-12-07T04:03:31;7.23;;;2.67;;
46318;SDS011;32042;50.916;2.926;2022-12-07T04:05:57;7.03;;;2.20;;
46318;SDS011;32042;50.916;2.926;2022-12-07T04:08:23;8.37;;;2.00;;
46318;SDS011;32042;50.916;2.926;2022-12-07T04:10:49;9.03;;;2.63;;
46318;SDS011;32042;50.916;2.926;2022-12-07T04:13:15;6.20;;;2.77;;
46318;SDS011;32042;50.916;2.926;2022-12-07T04:15:41;5.10;;;2.23;;
46318;SDS011;32042;50.916;2.926;2022-12-07T04:18:07;5.47;;;2.17;;
46318;SDS011;32042;50.916;2.926;2022-12-07T04:20:33;6.40;;;2.43;;
46318;SDS011;32042;50.916;2.926;2022-12-07T04:22:59;6.97;;;2.60;;
46318;SDS011;32042;50.916;2.926;2022-12-07T04:25:25;6.17;;;2.67;;
46318;SDS011;32042;50.916;2.926;2022-12-07T04:27:51;7.23;;;2.50;;
46318;SDS011;32042;50.916;2.926;2022-12-07T04:30:18;5.90;;;1.60;;
46318;SDS011;32042;50.916;2.926;2022-12-07T04:32:44;7.60;;;1.70;;
46318;SDS011;32042;50.916;2.926;2022-12-07T04:35:10;2.07;;;1.33;;
46318;SDS011;32042;50.916;2.926;2022-12-07T04:37:36;5.37;;;1.50;;
46318;SDS011;32042;50.916;2.926;2022-12-07T04:40:06;2.20;;;1.40;;
46318;SDS011;32042;50.916;2.926;2022-12-07T04:42:33;2.13;;;1.10;;
46318;SDS011;32042;50.916;2.926;2022-12-07T04:44:59;5.80;;;2.50;;
46318;SDS011;32042;50.916;2.926;2022-12-07T04:47:25;8.23;;;2.77;;
46318;SDS011;32042;50.916;2.926;2022-12-07T04:49:51;4.63;;;1.90;;
46318;SDS011;32042;50.916;2.926;2022-12-07T04:52:17;3.43;;;1.90;;
46318;SDS011;32042;50.916;2.926;2022-12-07T04:54:43;3.47;;;1.70;;
46318;SDS011;32042;50.916;2.926;2022-12-07T04:57:09;5.87;;;2.13;;
46318;SDS011;32042;50.916;2.926;2022-12-07T04:59:35;3.97;;;1.97;;
46318;SDS011;32042;50.916;2.926;2022-12-07T05:02:01;7.20;;;1.87;;
46318;SDS011;32042;50.916;2.926;2022-12-07T05:04:27;4.30;;;1.70;;
46318;SDS011;32042;50.916;2.926;2022-12-07T05:06:53;6.57;;;1.90;;
46318;SDS011;32042;50.916;2.926;2022-12-07T05:09:19;4.33;;;1.60;;
46318;SDS011;32042;50.916;2.926;2022-12-07T05:11:45;5.47;;;2.27;;
46318;SDS011;32042;50.916;2.926;2022-12-07T05:14:13;4.17;;;1.43;;
46318;SDS011;32042;50.916;2.926;2022-12-07T05:16:39;3.07;;;1.33;;
46318;SDS011;32042;50.916;2.926;2022-12-07T05:19:05;3.70;;;1.23;;
46318;SDS011;32042;50.916;2.926;2022-12-07T05:21:32;2.93;;;0.83;;
46318;SDS011;32042;50.916;2.926;2022-12-07T05:23:58;0.83;;;0.73;;
46318;SDS011;32042;50.916;2.926;2022-12-07T05:26:24;1.60;;;0.80;;
46318;SDS011;32042;50.916;2.926;2022-12-07T05:28:51;3.80;;;1.20;;
46318;SDS011;32042;50.916;2.926;2022-12-07T05:31:17;2.90;;;0.70;;
46318;SDS011;32042;50.916;2.926;2022-12-07T05:33:43;1.13;;;0.60;;
46318;SDS011;32042;50.916;2.926;2022-12-07T05:36:09;4.97;;;0.87;;
46318;SDS011;32042;50.916;2.926;2022-12-07T05:38:35;4.90;;;0.90;;
46318;SDS011;32042;50.916;2.926;2022-12-07T05:41:02;7.40;;;0.90;;
46318;SDS011;32042;50.916;2.926;2022-12-07T05:43:28;3.20;;;0.77;;
46318;SDS011;32042;50.916;2.926;2022-12-07T05:45:54;5.43;;;1.03;;
46318;SDS011;32042;50.916;2.926;2022-12-07T05:48:20;4.47;;;1.10;;
46318;SDS011;32042;50.916;2.926;2022-12-07T05:50:49;4.03;;;1.00;;
46318;SDS011;32042;50.916;2.926;2022-12-07T05:53:16;7.50;;;1.00;;
46318;SDS011;32042;50.916;2.926;2022-12-07T05:55:43;3.93;;;1.00;;
46318;SDS011;32042;50.916;2.926;2022-12-07T05:58:09;3.90;;;0.67;;
46318;SDS011;32042;50.916;2.926;2022-12-07T06:00:54;3.00;;;1.00;;
46318;SDS011;32042;50.916;2.926;2022-12-07T06:03:20;6.03;;;0.70;;
46318;SDS011;32042;50.916;2.926;2022-12-07T06:05:46;1.97;;;0.50;;
46318;SDS011;32042;50.916;2.926;2022-12-07T06:08:12;4.80;;;0.63;;
46318;SDS011;32042;50.916;2.926;2022-12-07T06:10:39;3.30;;;0.80;;
46318;SDS011;32042;50.916;2.926;2022-12-07T06:13:06;7.93;;;0.87;;
46318;SDS011;32042;50.916;2.926;2022-12-07T06:15:32;3.90;;;1.00;;
46318;SDS011;32042;50.916;2.926;2022-12-07T06:17:58;3.07;;;0.90;;
46318;SDS011;32042;50.916;2.926;2022-12-07T06:20:24;11.70;;;5.20;;
46318;SDS011;32042;50.916;2.926;2022-12-07T06:22:50;3.53;;;2.07;;
46318;SDS011;32042;50.916;2.926;2022-12-07T06:25:16;11.83;;;3.63;;
46318;SDS011;32042;50.916;2.926;2022-12-07T06:27:42;4.47;;;1.00;;
46318;SDS011;32042;50.916;2.926;2022-12-07T06:30:08;8.67;;;1.60;;
46318;SDS011;32042;50.916;2.926;2022-12-07T06:32:36;3.53;;;1.10;;
46318;SDS011;32042;50.916;2.926;2022-12-07T06:35:02;9.33;;;2.43;;
46318;SDS011;32042;50.916;2.926;2022-12-07T06:37:28;7.50;;;1.80;;
46318;SDS011;32042;50.916;2.926;2022-12-07T06:39:54;20.53;;;15.53;;
46318;SDS011;32042;50.916;2.926;2022-12-07T06:42:21;6.63;;;3.53;;
46318;SDS011;32042;50.916;2.926;2022-12-07T06:44:47;7.77;;;5.33;;
46318;SDS011;32042;50.916;2.926;2022-12-07T06:47:13;74.77;;;22.13;;
46318;SDS011;32042;50.916;2.926;2022-12-07T06:49:39;28.60;;;13.80;;
46318;SDS011;32042;50.916;2.926;2022-12-07T06:52:05;9.50;;;4.33;;
46318;SDS011;32042;50.916;2.926;2022-12-07T06:54:31;12.23;;;6.17;;
46318;SDS011;32042;50.916;2.926;2022-12-07T06:56:57;10.20;;;4.07;;
46318;SDS011;32042;50.916;2.926;2022-12-07T06:59:23;10.07;;;4.60;;
46318;SDS011;32042;50.916;2.926;2022-12-07T07:01:49;11.00;;;6.33;;
46318;SDS011;32042;50.916;2.926;2022-12-07T07:04:15;10.20;;;5.40;;
46318;SDS011;32042;50.916;2.926;2022-12-07T07:06:41;4.30;;;2.87;;
46318;SDS011;32042;50.916;2.926;2022-12-07T07:09:07;30.07;;;14.53;;
46318;SDS011;32042;50.916;2.926;2022-12-07T07:11:34;14.87;;;7.87;;
46318;SDS011;32042;50.916;2.926;2022-12-07T07:14:00;6.83;;;1.07;;
46318;SDS011;32042;50.916;2.926;2022-12-07T07:16:28;6.37;;;1.57;;
46318;SDS011;32042;50.916;2.926;2022-12-07T07:18:55;11.07;;;2.63;;
46318;SDS011;32042;50.916;2.926;2022-12-07T07:21:21;3.73;;;1.83;;
46318;SDS011;32042;50.916;2.926;2022-12-07T07:23:47;5.83;;;1.97;;
46318;SDS011;32042;50.916;2.926;2022-12-07T07:26:13;5.87;;;2.07;;
46318;SDS011;32042;50.916;2.926;2022-12-07T07:28:39;8.17;;;1.67;;
46318;SDS011;32042;50.916;2.926;2022-12-07T07:31:05;6.73;;;1.60;;
46318;SDS011;32042;50.916;2.926;2022-12-07T07:33:31;7.53;;;1.70;;
46318;SDS011;32042;50.916;2.926;2022-12-07T07:35:57;5.67;;;1.13;;
46318;SDS011;32042;50.916;2.926;2022-12-07T07:38:23;4.97;;;1.47;;
46318;SDS011;32042;50.916;2.926;2022-12-07T07:40:49;6.87;;;1.50;;
46318;SDS011;32042;50.916;2.926;2022-12-07T07:43:15;4.10;;;1.10;;
46318;SDS011;32042;50.916;2.926;2022-12-07T07:45:41;8.43;;;2.53;;
46318;SDS011;32042;50.916;2.926;2022-12-07T07:48:07;6.70;;;2.10;;
46318;SDS011;32042;50.916;2.926;2022-12-07T07:50:33;19.43;;;12.30;;
46318;SDS011;32042;50.916;2.926;2022-12-07T07:53:00;10.17;;;2.97;;
46318;SDS011;32042;50.916;2.926;2022-12-07T07:55:26;6.10;;;3.63;;
46318;SDS011;32042;50.916;2.926;2022-12-07T07:57:52;5.33;;;1.57;;
46318;SDS011;32042;50.916;2.926;2022-12-07T08:00:18;4.33;;;2.07;;
46318;SDS011;32042;50.916;2.926;2022-12-07T08:02:44;4.00;;;3.13;;
46318;SDS011;32042;50.916;2.926;2022-12-07T08:05:11;5.83;;;3.13;;
46318;SDS011;32042;50.916;2.926;2022-12-07T08:07:37;7.03;;;1.80;;
46318;SDS011;32042;50.916;2.926;2022-12-07T08:10:03;4.03;;;1.40;;
46318;SDS011;32042;50.916;2.926;2022-12-07T08:12:30;7.23;;;1.37;;
46318;SDS011;32042;50.916;2.926;2022-12-07T08:14:56;4.77;;;1.57;;
46318;SDS011;32042;50.916;2.926;2022-12-07T08:17:22;4.67;;;1.30;;
46318;SDS011;32042;50.916;2.926;2022-12-07T08:19:48;7.97;;;1.30;;
46318;SDS011;32042;50.916;2.926;2022-12-07T08:22:14;4.50;;;0.90;;
46318;SDS011;32042;50.916;2.926;2022-12-07T08:24:40;5.20;;;1.10;;
46318;SDS011;32042;50.916;2.926;2022-12-07T08:27:06;4.30;;;1.20;;
46318;SDS011;32042;50.916;2.926;2022-12-07T08:29:32;3.07;;;0.87;;
46318;SDS011;32042;50.916;2.926;2022-12-07T08:31:58;5.60;;;0.93;;
46318;SDS011;32042;50.916;2.926;2022-12-07T08:34:26;3.53;;;1.33;;
46318;SDS011;32042;50.916;2.926;2022-12-07T08:36:52;3.13;;;1.43;;
46318;SDS011;32042;50.916;2.926;2022-12-07T08:39:18;3.07;;;1.80;;
46318;SDS011;32042;50.916;2.926;2022-12-07T08:41:44;4.63;;;3.80;;
46318;SDS011;32042;50.916;2.926;2022-12-07T08:44:10;3.90;;;2.57;;
46318;SDS011;32042;50.916;2.926;2022-12-07T08:46:53;2.97;;;1.17;;
46318;SDS011;32042;50.916;2.926;2022-12-07T08:49:31;2.70;;;1.70;;
46318;SDS011;32042;50.916;2.926;2022-12-07T08:51:57;2.73;;;1.10;;
46318;SDS011;32042;50.916;2.926;2022-12-07T08:54:23;3.17;;;1.70;;
46318;SDS011;32042;50.916;2.926;2022-12-07T08:56:49;3.40;;;1.40;;
46318;SDS011;32042;50.916;2.926;2022-12-07T08:59:17;2.67;;;1.37;;
46318;SDS011;32042;50.916;2.926;2022-12-07T09:01:43;5.70;;;1.33;;
46318;SDS011;32042;50.916;2.926;2022-12-07T09:04:09;2.57;;;0.90;;
46318;SDS011;32042;50.916;2.926;2022-12-07T09:06:36;5.90;;;1.80;;
46318;SDS011;32042;50.916;2.926;2022-12-07T09:09:02;4.17;;;2.63;;
46318;SDS011;32042;50.916;2.926;2022-12-07T09:11:29;5.80;;;1.13;;
46318;SDS011;32042;50.916;2.926;2022-12-07T09:13:55;3.10;;;0.73;;
46318;SDS011;32042;50.916;2.926;2022-12-07T09:16:21;3.77;;;0.80;;
46318;SDS011;32042;50.916;2.926;2022-12-07T09:18:47;2.90;;;1.53;;
46318;SDS011;32042;50.916;2.926;2022-12-07T09:21:13;4.10;;;1.50;;
46318;SDS011;32042;50.916;2.926;2022-12-07T09:23:40;17.60;;;10.90;;
46318;SDS011;32042;50.916;2.926;2022-12-07T09:26:07;11.20;;;4.17;;
46318;SDS011;32042;50.916;2.926;2022-12-07T09:28:33;20.67;;;13.10;;
46318;SDS011;32042;50.916;2.926;2022-12-07T09:30:59;19.80;;;13.80;;
46318;SDS011;32042;50.916;2.926;2022-12-07T09:33:25;14.97;;;11.47;;
46318;SDS011;32042;50.916;2.926;2022-12-07T09:35:51;12.87;;;10.00;;
46318;SDS011;32042;50.916;2.926;2022-12-07T09:38:18;14.03;;;10.43;;
46318;SDS011;32042;50.916;2.926;2022-12-07T09:40:44;24.57;;;17.83;;
46318;SDS011;32042;50.916;2.926;2022-12-07T09:43:15;25.80;;;16.27;;
46318;SDS011;32042;50.916;2.926;2022-12-07T09:45:42;22.87;;;11.57;;
46318;SDS011;32042;50.916;2.926;2022-12-07T09:53:37;45.17;;;21.10;;
46318;SDS011;32042;50.916;2.926;2022-12-07T09:56:03;9.60;;;5.30;;
46318;SDS011;32042;50.916;2.926;2022-12-07T09:58:30;24.47;;;10.53;;
46318;SDS011;32042;50.916;2.926;2022-12-07T10:01:01;17.30;;;11.57;;
46318;SDS011;32042;50.916;2.926;2022-12-07T10:03:30;4.70;;;2.77;;
46318;SDS011;32042;50.916;2.926;2022-12-07T10:05:57;6.97;;;2.00;;
46318;SDS011;32042;50.916;2.926;2022-12-07T10:08:24;9.03;;;3.20;;
46318;SDS011;32042;50.916;2.926;2022-12-07T10:10:51;4.50;;;2.30;;
46318;SDS011;32042;50.916;2.926;2022-12-07T10:13:21;11.53;;;6.80;;
46318;SDS011;32042;50.916;2.926;2022-12-07T10:15:52;5.20;;;1.70;;
46318;SDS011;32042;50.916;2.926;2022-12-07T10:18:20;11.93;;;8.90;;
46318;SDS011;32042;50.916;2.926;2022-12-07T10:20:47;9.50;;;6.47;;
46318;SDS011;32042;50.916;2.926;2022-12-07T10:23:14;13.50;;;5.80;;
46318;SDS011;32042;50.916;2.926;2022-12-07T10:25:40;6.60;;;2.53;;
46318;SDS011;32042;50.916;2.926;2022-12-07T10:30:45;4.33;;;1.33;;
46318;SDS011;32042;50.916;2.926;2022-12-07T10:33:33;6.73;;;1.47;;
46318;SDS011;32042;50.916;2.926;2022-12-07T10:35:58;8.10;;;3.37;;
46318;SDS011;32042;50.916;2.926;2022-12-07T10:38:27;8.23;;;4.77;;
46318;SDS011;32042;50.916;2.926;2022-12-07T10:41:03;5.00;;;2.70;;
46318;SDS011;32042;50.916;2.926;2022-12-07T10:43:30;9.07;;;4.60;;
46318;SDS011;32042;50.916;2.926;2022-12-07T10:48:26;6.20;;;4.00;;
46318;SDS011;32042;50.916;2.926;2022-12-07T10:56:18;24.07;;;12.73;;
46318;SDS011;32042;50.916;2.926;2022-12-07T11:01:32;35.40;;;15.60;;
46318;SDS011;32042;50.916;2.926;2022-12-07T11:09:34;16.27;;;8.53;;
46318;SDS011;32042;50.916;2.926;2022-12-07T11:12:05;14.87;;;7.20;;
46318;SDS011;32042;50.916;2.926;2022-12-07T11:14:50;12.87;;;6.47;;
46318;SDS011;32042;50.916;2.926;2022-12-07T11:17:42;14.47;;;8.00;;
46318;SDS011;32042;50.916;2.926;2022-12-07T11:30:18;2.87;;;0.97;;
46318;SDS011;32042;50.916;2.926;2022-12-07T11:36:02;8.37;;;3.27;;
46318;SDS011;32042;50.916;2.926;2022-12-07T11:41:02;7.83;;;3.57;;
46318;SDS011;32042;50.916;2.926;2022-12-07T11:46:39;19.77;;;10.27;;
46318;SDS011;32042;50.916;2.926;2022-12-07T11:49:12;19.20;;;8.50;;
46318;SDS011;32042;50.916;2.926;2022-12-07T11:51:40;7.77;;;3.97;;
46318;SDS011;32042;50.916;2.926;2022-12-07T11:54:26;12.10;;;6.23;;
46318;SDS011;32042;50.916;2.926;2022-12-07T11:56:54;9.20;;;4.80;;
46318;SDS011;32042;50.916;2.926;2022-12-07T12:02:03;14.47;;;5.60;;
46318;SDS011;32042;50.916;2.926;2022-12-07T12:07:06;22.43;;;11.37;;
46318;SDS011;32042;50.916;2.926;2022-12-07T12:09:34;30.23;;;16.50;;
46318;SDS011;32042;50.916;2.926;2022-12-07T12:12:14;10.80;;;6.13;;
46318;SDS011;32042;50.916;2.926;2022-12-07T12:17:18;14.47;;;8.40;;
46318;SDS011;32042;50.916;2.926;2022-12-07T12:22:33;10.77;;;7.97;;
46318;SDS011;32042;50.916;2.926;2022-12-07T12:25:02;12.67;;;6.80;;
46318;SDS011;32042;50.916;2.926;2022-12-07T12:27:35;13.07;;;5.87;;
46318;SDS011;32042;50.916;2.926;2022-12-07T12:30:07;6.57;;;2.57;;
46318;SDS011;32042;50.916;2.926;2022-12-07T12:32:38;3.90;;;1.10;;
46318;SDS011;32042;50.916;2.926;2022-12-07T12:37:51;4.67;;;1.20;;
46318;SDS011;32042;50.916;2.926;2022-12-07T12:42:56;2.63;;;0.77;;
46318;SDS011;32042;50.916;2.926;2022-12-07T12:45:29;19.50;;;6.97;;
46318;SDS011;32042;50.916;2.926;2022-12-07T12:48:03;50.50;;;14.30;;
46318;SDS011;32042;50.916;2.926;2022-12-07T12:50:33;27.20;;;9.90;;
46318;SDS011;32042;50.916;2.926;2022-12-07T12:53:01;94.07;;;25.77;;
46318;SDS011;32042;50.916;2.926;2022-12-07T13:00:48;25.57;;;12.00;;
46318;SDS011;32042;50.916;2.926;2022-12-07T13:03:30;21.47;;;7.87;;
46318;SDS011;32042;50.916;2.926;2022-12-07T13:08:44;11.60;;;7.07;;
46318;SDS011;32042;50.916;2.926;2022-12-07T13:11:18;5.47;;;2.30;;
46318;SDS011;32042;50.916;2.926;2022-12-07T13:13:45;5.43;;;2.90;;
46318;SDS011;32042;50.916;2.926;2022-12-07T13:18:38;3.70;;;3.00;;
46318;SDS011;32042;50.916;2.926;2022-12-07T13:28:35;10.13;;;4.60;;
46318;SDS011;32042;50.916;2.926;2022-12-07T13:31:30;4.60;;;3.50;;
46318;SDS011;32042;50.916;2.926;2022-12-07T13:33:51;7.03;;;3.40;;
46318;SDS011;32042;50.916;2.926;2022-12-07T13:38:50;7.40;;;3.83;;
46318;SDS011;32042;50.916;2.926;2022-12-07T13:41:17;6.07;;;3.67;;
46318;SDS011;32042;50.916;2.926;2022-12-07T13:43:52;6.77;;;3.17;;
46318;SDS011;32042;50.916;2.926;2022-12-07T13:46:24;7.57;;;3.50;;
46318;SDS011;32042;50.916;2.926;2022-12-07T13:48:51;7.13;;;2.90;;
46318;SDS011;32042;50.916;2.926;2022-12-07T13:51:24;7.00;;;2.80;;
46318;SDS011;32042;50.916;2.926;2022-12-07T13:54:00;6.37;;;2.93;;
46318;SDS011;32042;50.916;2.926;2022-12-07T13:56:28;3.97;;;2.27;;
46318;SDS011;32042;50.916;2.926;2022-12-07T13:58:57;13.67;;;5.07;;
46318;SDS011;32042;50.916;2.926;2022-12-07T14:01:24;11.47;;;4.13;;
46318;SDS011;32042;50.916;2.926;2022-12-07T14:03:50;11.50;;;5.40;;
46318;SDS011;32042;50.916;2.926;2022-12-07T14:06:18;5.23;;;2.97;;
46318;SDS011;32042;50.916;2.926;2022-12-07T14:08:45;8.57;;;2.73;;
46318;SDS011;32042;50.916;2.926;2022-12-07T14:11:15;6.80;;;3.70;;
46318;SDS011;32042;50.916;2.926;2022-12-07T14:14:24;5.20;;;2.40;;
46318;SDS011;32042;50.916;2.926;2022-12-07T14:18:58;5.07;;;2.20;;
46318;SDS011;32042;50.916;2.926;2022-12-07T14:21:25;5.53;;;2.97;;
46318;SDS011;32042;50.916;2.926;2022-12-07T14:26:48;6.60;;;2.77;;
46318;SDS011;32042;50.916;2.926;2022-12-07T14:29:21;8.13;;;2.60;;
46318;SDS011;32042;50.916;2.926;2022-12-07T14:31:47;8.03;;;1.90;;
46318;SDS011;32042;50.916;2.926;2022-12-07T14:34:14;6.63;;;2.57;;
46318;SDS011;32042;50.916;2.926;2022-12-07T14:36:40;6.67;;;2.53;;
46318;SDS011;32042;50.916;2.926;2022-12-07T14:39:06;3.80;;;2.07;;
46318;SDS011;32042;50.916;2.926;2022-12-07T14:41:32;9.67;;;7.13;;
46318;SDS011;32042;50.916;2.926;2022-12-07T14:44:16;5.17;;;2.20;;
46318;SDS011;32042;50.916;2.926;2022-12-07T14:46:43;3.40;;;1.93;;
46318;SDS011;32042;50.916;2.926;2022-12-07T14:49:09;6.57;;;2.50;;
46318;SDS011;32042;50.916;2.926;2022-12-07T14:51:35;6.47;;;3.50;;
46318;SDS011;32042;50.916;2.926;2022-12-07T14:54:02;5.73;;;2.63;;
46318;SDS011;32042;50.916;2.926;2022-12-07T14:56:29;6.03;;;3.33;;
46318;SDS011;32042;50.916;2.926;2022-12-07T14:58:56;3.27;;;2.40;;
46318;SDS011;32042;50.916;2.926;2022-12-07T15:01:22;4.80;;;2.20;;
46318;SDS011;32042;50.916;2.926;2022-12-07T15:03:48;3.03;;;2.27;;
46318;SDS011;32042;50.916;2.926;2022-12-07T15:06:15;6.03;;;3.00;;
46318;SDS011;32042;50.916;2.926;2022-12-07T15:08:42;55.67;;;25.77;;
46318;SDS011;32042;50.916;2.926;2022-12-07T15:11:16;48.70;;;23.63;;
46318;SDS011;32042;50.916;2.926;2022-12-07T15:13:42;21.10;;;8.77;;
46318;SDS011;32042;50.916;2.926;2022-12-07T15:16:26;7.17;;;3.70;;
46318;SDS011;32042;50.916;2.926;2022-12-07T15:18:53;6.17;;;4.97;;
46318;SDS011;32042;50.916;2.926;2022-12-07T15:21:19;8.93;;;7.07;;
46318;SDS011;32042;50.916;2.926;2022-12-07T15:23:46;9.73;;;6.23;;
46318;SDS011;32042;50.916;2.926;2022-12-07T15:26:12;6.67;;;4.07;;
46318;SDS011;32042;50.916;2.926;2022-12-07T15:28:39;8.60;;;7.57;;
46318;SDS011;32042;50.916;2.926;2022-12-07T15:31:11;36.97;;;23.70;;
46318;SDS011;32042;50.916;2.926;2022-12-07T15:33:37;35.70;;;19.87;;
46318;SDS011;32042;50.916;2.926;2022-12-07T15:36:03;19.63;;;11.07;;
46318;SDS011;32042;50.916;2.926;2022-12-07T15:38:29;32.23;;;17.57;;
46318;SDS011;32042;50.916;2.926;2022-12-07T15:40:55;21.13;;;13.80;;
46318;SDS011;32042;50.916;2.926;2022-12-07T15:43:21;34.40;;;13.93;;
46318;SDS011;32042;50.916;2.926;2022-12-07T15:46:06;14.20;;;7.63;;
46318;SDS011;32042;50.916;2.926;2022-12-07T15:48:32;64.90;;;31.10;;
46318;SDS011;32042;50.916;2.926;2022-12-07T15:51:05;16.67;;;11.30;;
46318;SDS011;32042;50.916;2.926;2022-12-07T15:53:31;33.47;;;13.43;;
46318;SDS011;32042;50.916;2.926;2022-12-07T15:55:58;62.87;;;15.77;;
46318;SDS011;32042;50.916;2.926;2022-12-07T15:58:24;81.23;;;18.30;;
46318;SDS011;32042;50.916;2.926;2022-12-07T16:00:50;67.17;;;17.00;;
46318;SDS011;32042;50.916;2.926;2022-12-07T16:03:16;44.90;;;13.83;;
46318;SDS011;32042;50.916;2.926;2022-12-07T16:05:48;65.00;;;17.83;;
46318;SDS011;32042;50.916;2.926;2022-12-07T16:08:14;33.83;;;9.57;;
46318;SDS011;32042;50.916;2.926;2022-12-07T16:10:40;55.37;;;16.10;;
46318;SDS011;32042;50.916;2.926;2022-12-07T16:13:08;60.73;;;17.10;;
46318;SDS011;32042;50.916;2.926;2022-12-07T16:15:37;60.53;;;17.33;;
46318;SDS011;32042;50.916;2.926;2022-12-07T16:18:03;55.53;;;17.90;;
46318;SDS011;32042;50.916;2.926;2022-12-07T16:20:29;31.97;;;11.87;;
46318;SDS011;32042;50.916;2.926;2022-12-07T16:22:55;16.33;;;8.03;;
46318;SDS011;32042;50.916;2.926;2022-12-07T16:25:21;15.93;;;8.20;;
46318;SDS011;32042;50.916;2.926;2022-12-07T16:27:47;22.90;;;10.73;;
46318;SDS011;32042;50.916;2.926;2022-12-07T16:30:14;14.53;;;7.30;;
46318;SDS011;32042;50.916;2.926;2022-12-07T16:32:41;8.83;;;4.57;;
46318;SDS011;32042;50.916;2.926;2022-12-07T16:35:07;7.03;;;5.90;;
46318;SDS011;32042;50.916;2.926;2022-12-07T16:37:33;8.63;;;6.73;;
46318;SDS011;32042;50.916;2.926;2022-12-07T16:40:00;11.77;;;7.90;;
46318;SDS011;32042;50.916;2.926;2022-12-07T16:42:26;5.00;;;4.03;;
46318;SDS011;32042;50.916;2.926;2022-12-07T16:44:52;9.77;;;6.53;;
46318;SDS011;32042;50.916;2.926;2022-12-07T16:47:18;9.07;;;4.27;;